Time;durP1;ratioP1;P1;durP2;ratioP2;P2;SDS_P1;SDS_P2;PMS_P1;PMS_P2;Temp;Humidity;BMP_temperature;BMP_pressure;BME280_temperature;BME280_humidity;BME280_pressure;Samples;Min_cycle;Max_cycle;Signal;HPM_P1;HPM_P2
2022/12/02 03:01:06;;;;;;;38.73;31.77;;;4.50;99.90;;;;;;5685241;23;20231;-79
2022/12/02 03:03:36;;;;;;;41.27;32.80;;;4.50;99.90;;;;;;4886323;29;20672;-79
2022/12/02 03:06:07;;;;;;;41.20;33.77;;;4.40;99.90;;;;;;4889327;29;20201;-79
2022/12/02 03:08:34;;;;;;;38.63;32.73;;;4.40;99.90;;;;;;4902597;29;20583;-79
2022/12/02 03:11:02;;;;;;;39.37;33.97;;;4.40;99.90;;;;;;4899674;29;20710;-79
2022/12/02 03:13:31;;;;;;;44.37;33.80;;;4.40;99.90;;;;;;4893214;29;20195;-79
2022/12/02 03:15:58;;;;;;;38.80;32.33;;;4.40;99.90;;;;;;4918584;23;20235;-80
2022/12/02 03:18:26;;;;;;;40.87;32.53;;;4.40;99.90;;;;;;4901897;29;20248;-80
2022/12/02 03:20:54;;;;;;;40.23;32.07;;;4.40;99.90;;;;;;4905121;29;20572;-80
2022/12/02 03:23:21;;;;;;;45.93;35.30;;;4.40;99.90;;;;;;4907008;29;20696;-79
2022/12/02 03:25:48;;;;;;;41.33;34.43;;;4.50;99.90;;;;;;4891402;29;20276;-81
2022/12/02 03:28:15;;;;;;;46.93;34.67;;;4.50;99.90;;;;;;4885145;29;20236;-82
2022/12/02 03:30:42;;;;;;;42.97;33.47;;;4.50;99.90;;;;;;4885851;29;20204;-82
2022/12/02 03:33:09;;;;;;;43.43;33.93;;;4.40;99.90;;;;;;4884496;29;20228;-82
2022/12/02 03:35:38;;;;;;;42.93;34.70;;;4.40;99.90;;;;;;4886416;29;20220;-82
2022/12/02 03:38:05;;;;;;;45.37;35.37;;;4.40;99.90;;;;;;4887275;29;20257;-82
2022/12/02 03:40:32;;;;;;;41.90;34.03;;;4.40;99.90;;;;;;4879887;29;20209;-80
2022/12/02 03:42:59;;;;;;;46.90;34.80;;;4.40;99.90;;;;;;4889081;29;20217;-79
2022/12/02 03:45:26;;;;;;;45.53;34.77;;;4.40;99.90;;;;;;4890502;29;20220;-80
2022/12/02 03:47:53;;;;;;;41.57;34.80;;;4.30;99.90;;;;;;4888419;29;20197;-78
2022/12/02 03:50:20;;;;;;;41.50;33.03;;;4.30;99.90;;;;;;4887899;29;20212;-81
2022/12/02 03:52:49;;;;;;;45.87;36.03;;;4.30;99.90;;;;;;4889564;29;20201;-77
2022/12/02 03:55:16;;;;;;;42.53;33.87;;;4.30;99.90;;;;;;4884788;29;20229;-84
2022/12/02 03:57:43;;;;;;;42.03;34.40;;;4.30;99.90;;;;;;4885584;29;20549;-84
2022/12/02 04:00:12;;;;;;;44.67;34.97;;;4.40;99.90;;;;;;4884613;29;20208;-85
2022/12/02 04:02:41;;;;;;;43.27;35.20;;;4.40;99.90;;;;;;4875090;29;20225;-85
2022/12/02 04:05:08;;;;;;;42.97;34.70;;;4.40;99.90;;;;;;4875366;29;20221;-85
2022/12/02 04:07:35;;;;;;;45.53;34.87;;;4.40;99.90;;;;;;4878848;29;20213;-86
2022/12/02 04:10:05;;;;;;;46.93;35.90;;;4.50;99.90;;;;;;4878811;29;20206;-85
2022/12/02 04:12:32;;;;;;;48.17;36.57;;;4.50;99.90;;;;;;4893532;29;20197;-86
2022/12/02 04:14:58;;;;;;;45.63;35.60;;;4.50;99.90;;;;;;4886092;29;20225;-85
2022/12/02 04:17:25;;;;;;;46.93;36.27;;;4.50;99.90;;;;;;4887584;29;20705;-84
2022/12/02 04:19:52;;;;;;;45.53;36.57;;;4.60;99.90;;;;;;4886173;29;20245;-85
2022/12/02 04:22:19;;;;;;;43.87;34.37;;;4.50;99.90;;;;;;4881349;29;20308;-82
2022/12/02 04:24:46;;;;;;;48.10;36.23;;;4.50;99.90;;;;;;4877470;29;20208;-82
2022/12/02 04:27:14;;;;;;;52.60;36.80;;;4.50;99.90;;;;;;4886944;29;20220;-82
2022/12/02 04:29:41;;;;;;;49.87;36.80;;;4.50;99.90;;;;;;4886127;29;20564;-78
2022/12/02 04:32:08;;;;;;;41.37;34.67;;;4.50;99.90;;;;;;4886596;29;20192;-79
2022/12/02 04:34:35;;;;;;;49.90;37.27;;;4.50;99.90;;;;;;4886483;29;20201;-79
2022/12/02 04:37:01;;;;;;;46.03;36.10;;;4.50;99.90;;;;;;4887580;29;20288;-79
2022/12/02 04:39:28;;;;;;;40.60;33.63;;;4.50;99.90;;;;;;4884940;29;20233;-81
2022/12/02 04:41:55;;;;;;;47.83;36.33;;;4.50;99.90;;;;;;4887694;29;20216;-81
2022/12/02 04:44:23;;;;;;;46.90;35.40;;;4.50;99.90;;;;;;4882198;29;20261;-80
2022/12/02 04:46:50;;;;;;;45.97;36.20;;;4.50;99.90;;;;;;4889241;29;20603;-80
2022/12/02 04:49:17;;;;;;;50.17;36.13;;;4.50;99.90;;;;;;4883078;29;20198;-81
2022/12/02 04:51:44;;;;;;;42.40;35.00;;;4.50;99.90;;;;;;4889090;29;20585;-81
2022/12/02 04:54:11;;;;;;;43.10;35.17;;;4.50;99.90;;;;;;4884697;29;20216;-80
2022/12/02 04:56:38;;;;;;;45.07;36.20;;;4.40;99.90;;;;;;4887236;29;20283;-80
2022/12/02 04:59:05;;;;;;;43.27;35.03;;;4.40;99.90;;;;;;4887745;29;20201;-79
2022/12/02 05:01:33;;;;;;;47.23;35.83;;;4.50;99.90;;;;;;4890553;29;20205;-79
2022/12/02 05:04:00;;;;;;;44.13;35.03;;;4.50;99.90;;;;;;4887580;29;20213;-80
2022/12/02 05:06:27;;;;;;;44.90;36.83;;;4.50;99.90;;;;;;4889408;29;20225;-81
2022/12/02 05:08:54;;;;;;;40.50;35.03;;;4.40;99.90;;;;;;4886212;29;20204;-81
2022/12/02 05:11:21;;;;;;;44.50;34.13;;;4.40;99.90;;;;;;4887928;29;20215;-81
2022/12/02 05:13:48;;;;;;;46.87;37.00;;;4.50;99.90;;;;;;4887629;29;20544;-81
2022/12/02 05:16:15;;;;;;;38.93;33.90;;;4.50;99.90;;;;;;4882925;29;20237;-80
2022/12/02 05:18:43;;;;;;;41.73;34.27;;;4.50;99.90;;;;;;4884136;29;20209;-80
2022/12/02 05:21:10;;;;;;;39.50;33.30;;;4.50;99.90;;;;;;4886737;29;20293;-81
2022/12/02 05:23:36;;;;;;;47.13;35.53;;;4.40;99.90;;;;;;4887878;29;20245;-81
2022/12/02 05:26:04;;;;;;;46.10;34.27;;;4.40;99.90;;;;;;4894802;29;20335;-80
2022/12/02 05:28:30;;;;;;;46.33;36.67;;;4.40;99.90;;;;;;4887269;29;20201;-81
2022/12/02 05:30:57;;;;;;;43.30;34.77;;;4.40;99.90;;;;;;4885868;29;20190;-80
2022/12/02 05:33:24;;;;;;;40.83;33.73;;;4.40;99.90;;;;;;4895680;29;20220;-81
2022/12/02 05:35:52;;;;;;;45.27;35.67;;;4.50;99.90;;;;;;4889494;29;20221;-82
2022/12/02 05:38:19;;;;;;;42.10;33.73;;;4.50;99.90;;;;;;4892192;29;20268;-83
2022/12/02 05:40:47;;;;;;;43.63;34.07;;;4.40;99.90;;;;;;4887990;29;20240;-82
2022/12/02 05:43:17;;;;;;;42.20;34.93;;;4.40;99.90;;;;;;4889849;29;20235;-82
2022/12/02 05:45:44;;;;;;;44.47;34.37;;;4.40;99.90;;;;;;4889869;29;20592;-82
2022/12/02 05:48:12;;;;;;;43.30;33.33;;;4.30;99.90;;;;;;4886845;29;20205;-82
2022/12/02 05:50:39;;;;;;;42.13;34.63;;;4.40;99.90;;;;;;4888972;29;20640;-83
2022/12/02 05:53:12;;;;;;;45.73;35.60;;;4.40;99.90;;;;;;4890427;29;20576;-81
2022/12/02 05:55:39;;;;;;;44.83;34.63;;;4.30;99.90;;;;;;4889467;29;20697;-83
2022/12/02 05:58:11;;;;;;;40.53;34.43;;;4.30;99.90;;;;;;4889074;29;20205;-81
2022/12/02 06:00:38;;;;;;;37.50;33.10;;;4.30;99.90;;;;;;4881939;29;20201;-83
2022/12/02 06:03:08;;;;;;;42.40;34.27;;;4.30;99.90;;;;;;4883381;29;20217;-81
2022/12/02 06:05:38;;;;;;;44.27;34.40;;;4.40;99.90;;;;;;4889453;29;20221;-80
2022/12/02 06:08:17;;;;;;;43.67;34.80;;;4.40;99.90;;;;;;4890832;29;20220;-81
2022/12/02 06:10:47;;;;;;;45.03;34.63;;;4.40;99.90;;;;;;4886977;29;20196;-82
2022/12/02 06:13:19;;;;;;;41.43;34.53;;;4.30;99.90;;;;;;4883145;29;20717;-81
2022/12/02 06:15:47;;;;;;;45.33;35.70;;;4.40;99.90;;;;;;4884755;29;20232;-82
2022/12/02 06:18:16;;;;;;;48.40;35.97;;;4.40;99.90;;;;;;4888813;29;20201;-82
2022/12/02 06:20:44;;;;;;;40.97;35.83;;;4.40;99.90;;;;;;4888512;29;20216;-81
2022/12/02 06:23:15;;;;;;;44.27;35.37;;;4.40;99.90;;;;;;4888124;29;20278;-82
2022/12/02 06:25:44;;;;;;;45.97;36.43;;;4.30;99.90;;;;;;4888120;29;20307;-81
2022/12/02 06:28:26;;;;;;;44.80;34.00;;;4.30;99.90;;;;;;4889966;29;20587;-81
2022/12/02 06:30:56;;;;;;;41.73;34.23;;;4.30;99.90;;;;;;4887621;29;20212;-82
2022/12/02 06:33:28;;;;;;;38.47;33.67;;;4.30;99.90;;;;;;4883726;29;20200;-81
2022/12/02 06:35:57;;;;;;;44.87;35.17;;;4.40;99.90;;;;;;4886186;29;20631;-81
2022/12/02 06:38:29;;;;;;;41.73;33.97;;;4.40;99.90;;;;;;4884104;29;20208;-81
2022/12/02 06:40:57;;;;;;;45.43;35.47;;;4.30;99.90;;;;;;4878398;29;20643;-81
2022/12/02 06:43:27;;;;;;;43.60;34.40;;;4.30;99.90;;;;;;4886323;29;20738;-82
2022/12/02 06:45:54;;;;;;;47.03;35.67;;;4.30;99.90;;;;;;4886833;29;20229;-82
2022/12/02 06:48:30;;;;;;;43.47;34.37;;;4.30;99.90;;;;;;4890874;29;20280;-81
2022/12/02 06:51:00;;;;;;;39.17;32.37;;;4.30;99.90;;;;;;4886816;29;20580;-81
2022/12/02 06:53:34;;;;;;;40.40;33.97;;;4.30;99.90;;;;;;4887221;29;20202;-81
2022/12/02 06:56:05;;;;;;;43.53;35.07;;;4.30;99.90;;;;;;4888117;29;20223;-81
2022/12/02 06:58:37;;;;;;;43.83;35.47;;;4.30;99.90;;;;;;4884445;29;20212;-82
2022/12/02 07:01:23;;;;;;;48.27;35.97;;;4.40;99.90;;;;;;4888060;29;20212;-82
2022/12/02 07:04:01;;;;;;;43.87;34.93;;;4.40;99.90;;;;;;4883263;29;20231;-81
2022/12/02 07:06:30;;;;;;;42.50;34.50;;;4.40;99.90;;;;;;4883326;29;20733;-83
2022/12/02 07:09:00;;;;;;;41.17;34.93;;;4.40;99.90;;;;;;4878951;29;20216;-80
2022/12/02 07:11:52;;;;;;;42.70;33.40;;;4.40;99.90;;;;;;4874930;29;20205;-80
2022/12/02 07:14:27;;;;;;;43.23;33.57;;;4.40;99.90;;;;;;4895459;29;20200;-79
2022/12/02 07:16:56;;;;;;;43.17;34.63;;;4.40;99.90;;;;;;4886503;29;20610;-80
2022/12/02 07:19:24;;;;;;;42.93;35.17;;;4.40;99.90;;;;;;4886023;29;20741;-79
2022/12/02 07:21:51;;;;;;;43.73;34.70;;;4.40;99.90;;;;;;4890869;29;20209;-80
2022/12/02 07:24:21;;;;;;;39.80;33.63;;;4.40;99.90;;;;;;4889692;29;20221;-79
2022/12/02 07:26:49;;;;;;;39.60;31.43;;;4.40;99.90;;;;;;4891521;29;20311;-79
2022/12/02 07:29:26;;;;;;;39.47;32.23;;;4.40;99.90;;;;;;4889610;29;20208;-80
2022/12/02 07:31:53;;;;;;;40.67;33.53;;;4.40;99.90;;;;;;4886434;29;20260;-79
2022/12/02 07:34:20;;;;;;;40.83;33.13;;;4.40;99.90;;;;;;4888870;29;20202;-79
2022/12/02 07:36:47;;;;;;;45.07;35.30;;;4.50;99.90;;;;;;4890902;29;20756;-79
2022/12/02 07:39:13;;;;;;;39.80;33.10;;;4.40;99.90;;;;;;4883538;29;20245;-79
2022/12/02 07:41:44;;;;;;;41.63;33.13;;;4.40;99.90;;;;;;4886218;29;20205;-80
2022/12/02 07:44:11;;;;;;;44.20;34.13;;;4.50;99.90;;;;;;4888328;29;20247;-85
2022/12/02 07:46:38;;;;;;;42.53;34.73;;;4.40;99.90;;;;;;4882759;29;20226;-76
2022/12/02 07:49:04;;;;;;;43.07;33.40;;;4.40;99.90;;;;;;4887538;29;20650;-79
2022/12/02 07:51:31;;;;;;;41.53;33.07;;;4.50;99.90;;;;;;4887530;29;20615;-84
2022/12/02 07:53:58;;;;;;;45.97;35.83;;;4.60;99.90;;;;;;4888006;29;20543;-82
2022/12/02 07:56:25;;;;;;;41.53;33.67;;;4.60;99.90;;;;;;4886876;29;20311;-80
2022/12/02 07:58:53;;;;;;;44.60;34.67;;;4.60;99.90;;;;;;4885799;29;20471;-82
2022/12/02 08:01:20;;;;;;;40.50;33.10;;;4.50;99.90;;;;;;4886595;29;20499;-81
2022/12/02 08:03:47;;;;;;;47.87;34.90;;;4.60;99.90;;;;;;4886153;29;20752;-83
2022/12/02 08:06:14;;;;;;;42.30;34.70;;;4.60;99.90;;;;;;4882249;29;20229;-81
2022/12/02 08:08:41;;;;;;;42.87;33.67;;;4.50;99.90;;;;;;4881822;29;20690;-83
2022/12/02 08:11:08;;;;;;;42.10;34.57;;;4.50;99.90;;;;;;4879626;29;20205;-83
2022/12/02 08:13:35;;;;;;;43.93;34.27;;;4.60;99.90;;;;;;4892318;29;20202;-85
2022/12/02 08:16:04;;;;;;;41.03;34.37;;;4.60;99.90;;;;;;4880405;29;20237;-86
2022/12/02 08:18:31;;;;;;;45.07;34.70;;;4.70;99.90;;;;;;4888286;29;20208;-85
2022/12/02 08:20:58;;;;;;;42.23;33.00;;;4.70;99.90;;;;;;4886920;29;20241;-84
2022/12/02 08:23:24;;;;;;;39.13;33.40;;;4.70;99.90;;;;;;4885071;29;20257;-85
2022/12/02 08:25:51;;;;;;;40.50;33.03;;;4.80;99.90;;;;;;4885002;29;20225;-85
2022/12/02 08:28:18;;;;;;;42.30;33.47;;;4.80;99.90;;;;;;4887415;29;20288;-83
2022/12/02 08:30:46;;;;;;;44.53;35.40;;;4.70;99.90;;;;;;4889877;29;20237;-85
2022/12/02 08:33:14;;;;;;;38.97;33.20;;;4.70;99.90;;;;;;4886321;29;20655;-85
2022/12/02 08:35:41;;;;;;;38.60;32.77;;;4.70;99.90;;;;;;4888111;29;20268;-85
2022/12/02 08:38:08;;;;;;;45.17;34.97;;;4.70;99.90;;;;;;4886641;29;20249;-85
2022/12/02 08:40:35;;;;;;;42.40;33.43;;;4.70;99.90;;;;;;4887857;29;20209;-85
2022/12/02 08:43:02;;;;;;;45.27;34.00;;;4.70;99.90;;;;;;4888434;29;20261;-85
2022/12/02 08:45:29;;;;;;;40.83;32.63;;;4.80;99.90;;;;;;4883046;29;20228;-83
2022/12/02 08:47:56;;;;;;;40.47;32.73;;;4.80;99.90;;;;;;4888838;29;20581;-79
2022/12/02 08:50:24;;;;;;;41.10;33.20;;;4.80;99.90;;;;;;4887362;29;20201;-79
2022/12/02 08:52:51;;;;;;;43.63;33.33;;;4.80;99.90;;;;;;4888347;29;20205;-78
2022/12/02 08:55:18;;;;;;;39.90;32.37;;;4.80;99.90;;;;;;4887401;29;20736;-79
2022/12/02 08:57:45;;;;;;;43.87;33.97;;;4.90;99.90;;;;;;4887177;29;20201;-79
2022/12/02 09:00:13;;;;;;;38.70;31.43;;;4.80;99.90;;;;;;4891003;29;20196;-81
2022/12/02 09:02:40;;;;;;;43.80;33.37;;;4.90;99.90;;;;;;4885799;29;20212;-80
2022/12/02 09:05:07;;;;;;;38.53;32.43;;;4.80;99.90;;;;;;4892438;29;20232;-80
2022/12/02 09:07:35;;;;;;;36.53;30.67;;;4.90;99.90;;;;;;4888721;29;20205;-82
2022/12/02 09:10:03;;;;;;;35.80;31.00;;;4.90;99.90;;;;;;4888258;29;20208;-81
2022/12/02 09:12:30;;;;;;;42.43;32.27;;;4.90;99.90;;;;;;4894227;29;20209;-81
2022/12/02 09:14:57;;;;;;;41.00;32.27;;;4.90;99.90;;;;;;4891312;29;20213;-81
2022/12/02 09:17:27;;;;;;;36.53;29.80;;;4.80;99.90;;;;;;4893981;29;20207;-83
2022/12/02 09:19:54;;;;;;;34.23;29.93;;;4.90;99.90;;;;;;4893813;29;20204;-79
2022/12/02 09:22:21;;;;;;;39.60;30.27;;;4.90;99.90;;;;;;4890243;29;20209;-82
2022/12/02 09:24:49;;;;;;;38.83;29.40;;;5.00;99.90;;;;;;4898315;29;20617;-82
2022/12/02 09:27:16;;;;;;;35.27;29.03;;;5.00;99.90;;;;;;4889981;29;20201;-82
2022/12/02 09:29:43;;;;;;;33.97;29.03;;;5.00;99.90;;;;;;4891594;29;20210;-82
2022/12/02 09:32:10;;;;;;;34.67;28.03;;;5.00;99.90;;;;;;4885032;29;20237;-80
2022/12/02 09:34:36;;;;;;;34.60;30.30;;;5.10;99.90;;;;;;4893562;29;20205;-80
2022/12/02 09:37:04;;;;;;;37.27;29.73;;;5.00;99.90;;;;;;4892146;29;20215;-82
2022/12/02 09:39:31;;;;;;;37.13;30.23;;;5.00;99.90;;;;;;4892481;29;20208;-82
2022/12/02 09:42:00;;;;;;;35.57;30.17;;;5.10;99.90;;;;;;4891138;29;20212;-82
2022/12/02 09:44:27;;;;;;;33.77;28.60;;;5.20;99.90;;;;;;4892352;29;20280;-82
2022/12/02 09:46:54;;;;;;;33.13;29.60;;;5.20;99.90;;;;;;4893022;29;20249;-82
2022/12/02 09:49:21;;;;;;;32.53;28.67;;;5.20;99.90;;;;;;4891715;29;20209;-81
2022/12/02 09:51:47;;;;;;;36.17;29.90;;;5.20;99.90;;;;;;4893244;29;20197;-82
2022/12/02 09:54:16;;;;;;;31.10;27.70;;;5.30;99.90;;;;;;4890823;29;20213;-80
2022/12/02 09:56:43;;;;;;;29.77;26.63;;;5.20;99.90;;;;;;4891991;29;20307;-82
2022/12/02 09:59:15;;;;;;;32.90;27.53;;;5.20;99.90;;;;;;4890766;29;20417;-81
2022/12/02 10:01:44;;;;;;;33.33;26.77;;;5.20;99.90;;;;;;4888355;29;20603;-82
2022/12/02 10:04:12;;;;;;;30.83;27.23;;;5.20;99.90;;;;;;4891972;29;20629;-82
2022/12/02 10:06:40;;;;;;;32.17;26.47;;;5.20;99.90;;;;;;4895574;29;20216;-82
2022/12/02 10:09:13;;;;;;;30.07;25.00;;;5.30;99.90;;;;;;4893990;29;20265;-79
2022/12/02 10:11:40;;;;;;;31.57;25.33;;;5.30;99.90;;;;;;4891616;29;20211;-82
2022/12/02 10:14:09;;;;;;;33.90;27.17;;;5.30;99.90;;;;;;4890962;29;20584;-81
2022/12/02 10:16:39;;;;;;;31.97;26.70;;;5.30;99.90;;;;;;4891817;29;20704;-82
2022/12/02 10:19:06;;;;;;;29.83;25.73;;;5.30;99.90;;;;;;4888107;29;20213;-80
2022/12/02 10:21:33;;;;;;;29.63;26.50;;;5.40;99.90;;;;;;4893938;29;20201;-82
2022/12/02 10:24:02;;;;;;;29.30;26.23;;;5.40;99.90;;;;;;4892190;29;20225;-82
2022/12/02 10:26:44;;;;;;;30.17;26.23;;;5.40;99.90;;;;;;4884899;29;20253;-82
2022/12/02 10:29:17;;;;;;;31.40;26.13;;;5.40;99.90;;;;;;4888893;29;20202;-81
2022/12/02 10:31:56;;;;;;;30.33;27.13;;;5.40;99.90;;;;;;4888451;29;20197;-81
2022/12/02 10:34:24;;;;;;;31.80;27.23;;;5.40;99.90;;;;;;4890542;29;20670;-81
2022/12/02 10:36:52;;;;;;;30.97;26.17;;;5.50;99.90;;;;;;4887440;29;20214;-81
2022/12/02 10:39:32;;;;;;;28.47;25.53;;;5.60;99.90;;;;;;4891257;29;20197;-81
2022/12/02 10:42:13;;;;;;;29.50;26.30;;;5.60;99.90;;;;;;4880720;29;20686;-81
2022/12/02 10:44:42;;;;;;;28.00;25.10;;;5.60;99.90;;;;;;4896405;29;20228;-80
2022/12/02 10:47:17;;;;;;;30.37;26.53;;;5.50;99.90;;;;;;4888999;29;20207;-79
2022/12/02 10:49:48;;;;;;;29.47;24.97;;;5.50;99.90;;;;;;4889297;29;20222;-83
2022/12/02 10:52:16;;;;;;;28.50;25.43;;;5.50;99.90;;;;;;4888320;29;20214;-83
2022/12/02 10:54:46;;;;;;;30.50;26.23;;;5.50;99.90;;;;;;4886745;29;20217;-83
2022/12/02 10:57:23;;;;;;;27.80;24.73;;;5.40;99.90;;;;;;4888881;29;20412;-83
2022/12/02 10:59:51;;;;;;;29.77;26.67;;;5.40;99.90;;;;;;4886181;29;20196;-83
2022/12/02 11:02:26;;;;;;;28.13;24.73;;;5.40;99.90;;;;;;4885096;29;20206;-84
2022/12/02 11:04:53;;;;;;;29.80;26.23;;;5.40;99.90;;;;;;4891021;29;20689;-83
2022/12/02 11:07:25;;;;;;;32.97;27.57;;;5.40;99.90;;;;;;4879129;29;20198;-82
2022/12/02 11:09:54;;;;;;;28.73;25.63;;;5.40;99.90;;;;;;4889276;29;20206;-83
2022/12/02 11:12:36;;;;;;;29.50;26.30;;;5.40;99.90;;;;;;4888318;29;20244;-82
2022/12/02 11:15:21;;;;;;;29.07;25.97;;;5.40;99.90;;;;;;4892219;29;20221;-82
2022/12/02 11:17:51;;;;;;;27.47;24.57;;;5.40;99.90;;;;;;4888728;29;20290;-83
2022/12/02 11:20:37;;;;;;;29.83;26.63;;;5.40;99.90;;;;;;4885829;29;20216;-83
2022/12/02 11:23:23;;;;;;;28.30;25.37;;;5.40;99.90;;;;;;4895171;29;20204;-82
2022/12/02 11:26:06;;;;;;;29.63;25.63;;;5.30;99.90;;;;;;4892307;29;20260;-84
2022/12/02 11:29:24;;;;;;;28.27;25.30;;;5.30;99.90;;;;;;4895753;29;20200;-86
2022/12/02 11:32:02;;;;;;;30.93;26.80;;;5.30;99.90;;;;;;4885445;29;20212;-85
2022/12/02 11:34:46;;;;;;;31.67;26.73;;;5.30;99.90;;;;;;4878705;29;20288;-84
2022/12/02 11:37:40;;;;;;;31.17;27.30;;;5.20;99.90;;;;;;4884465;29;20205;-84
2022/12/02 11:40:52;;;;;;;29.73;26.53;;;5.10;99.90;;;;;;4884147;29;20220;-84
2022/12/02 11:43:41;;;;;;;30.40;26.37;;;5.10;99.90;;;;;;4812729;29;20732;-84
2022/12/02 11:46:08;;;;;;;29.23;26.03;;;5.00;99.90;;;;;;4880226;29;20237;-79
2022/12/02 11:48:45;;;;;;;30.23;26.87;;;5.00;99.90;;;;;;4878796;29;20608;-82
2022/12/02 11:51:30;;;;;;;29.70;25.73;;;5.00;99.90;;;;;;4884187;29;20317;-82
2022/12/02 11:53:58;;;;;;;29.47;26.27;;;5.00;99.90;;;;;;4886674;29;20286;-82
2022/12/02 11:56:29;;;;;;;30.13;26.50;;;5.10;99.90;;;;;;4888721;29;20247;-81
2022/12/02 11:58:56;;;;;;;28.97;25.97;;;5.10;99.90;;;;;;4887949;29;20232;-81
2022/12/02 12:01:22;;;;;;;29.17;26.07;;;5.20;99.90;;;;;;4889303;29;20714;-82
2022/12/02 12:03:51;;;;;;;29.93;26.73;;;5.20;99.90;;;;;;4890212;29;20201;-81
2022/12/02 12:06:19;;;;;;;28.27;25.27;;;5.20;99.90;;;;;;4888644;29;20226;-81
2022/12/02 12:08:50;;;;;;;30.33;26.83;;;5.20;99.90;;;;;;4892309;29;20197;-82
2022/12/02 12:11:20;;;;;;;28.13;25.23;;;5.10;99.90;;;;;;4888943;29;20201;-79
2022/12/02 12:14:04;;;;;;;28.10;25.23;;;5.10;99.90;;;;;;4891446;29;20201;-80
2022/12/02 12:16:32;;;;;;;28.97;25.87;;;5.00;99.90;;;;;;4884888;29;20232;-82
2022/12/02 12:19:01;;;;;;;27.90;25.10;;;5.00;99.90;;;;;;4888126;29;20201;-83
2022/12/02 12:21:41;;;;;;;29.03;26.03;;;5.00;99.90;;;;;;4879212;29;20208;-82
2022/12/02 12:24:29;;;;;;;29.17;24.63;;;4.90;99.90;;;;;;4889447;29;20208;-82
2022/12/02 12:26:58;;;;;;;29.63;25.87;;;4.90;99.90;;;;;;4887216;29;20224;-83
2022/12/02 12:29:26;;;;;;;29.23;25.60;;;5.00;99.90;;;;;;4888422;29;20592;-81
2022/12/02 12:31:54;;;;;;;31.07;27.63;;;5.00;99.90;;;;;;4889834;29;20204;-82
2022/12/02 12:34:20;;;;;;;31.07;27.83;;;5.00;99.90;;;;;;4886749;29;20205;-82
2022/12/02 12:36:48;;;;;;;29.33;26.20;;;4.90;99.90;;;;;;4880198;29;20229;-82
2022/12/02 12:39:15;;;;;;;29.83;26.73;;;4.90;99.90;;;;;;4865076;29;20203;-82
2022/12/02 12:41:44;;;;;;;30.80;27.07;;;5.00;99.90;;;;;;4863931;29;20206;-82
2022/12/02 12:44:12;;;;;;;33.47;26.67;;;4.90;99.90;;;;;;4873945;29;20229;-82
2022/12/02 12:46:39;;;;;;;30.17;25.00;;;5.00;99.90;;;;;;4865512;29;20726;-82
2022/12/02 12:49:06;;;;;;;29.30;26.20;;;4.90;99.90;;;;;;4877874;29;20216;-81
2022/12/02 12:51:33;;;;;;;28.00;25.07;;;4.90;99.90;;;;;;4879142;29;20285;-82
2022/12/02 12:54:00;;;;;;;29.00;25.93;;;4.80;99.90;;;;;;4877559;29;20202;-82
2022/12/02 12:56:27;;;;;;;27.37;24.47;;;4.80;99.90;;;;;;4878299;29;20897;-82
2022/12/02 12:58:55;;;;;;;28.43;25.03;;;4.80;99.90;;;;;;4878721;29;20205;-85
2022/12/02 13:01:22;;;;;;;27.30;24.43;;;4.80;99.90;;;;;;4884918;29;20202;-85
2022/12/02 13:03:49;;;;;;;27.40;24.47;;;4.80;99.90;;;;;;4889948;29;20592;-82
2022/12/02 13:06:16;;;;;;;27.50;24.47;;;4.80;99.90;;;;;;4882175;29;20237;-81
2022/12/02 13:08:42;;;;;;;25.70;23.10;;;4.80;99.90;;;;;;4881741;29;20217;-82
2022/12/02 13:11:10;;;;;;;26.90;24.00;;;4.80;99.90;;;;;;4886916;29;20237;-79
2022/12/02 13:13:37;;;;;;;27.83;24.70;;;4.80;99.90;;;;;;4888907;29;20201;-82
2022/12/02 13:16:08;;;;;;;28.50;24.03;;;4.80;99.90;;;;;;4884950;29;20240;-80
2022/12/02 13:18:35;;;;;;;27.33;24.30;;;4.80;99.90;;;;;;4891788;29;20309;-83
2022/12/02 13:21:02;;;;;;;26.77;24.03;;;4.80;99.90;;;;;;4885634;29;20193;-82
2022/12/02 13:23:29;;;;;;;26.20;23.50;;;4.80;99.90;;;;;;4886706;29;20201;-80
2022/12/02 13:25:56;;;;;;;26.43;23.73;;;4.80;99.90;;;;;;4889366;29;20221;-81
2022/12/02 13:28:23;;;;;;;26.20;23.50;;;4.80;99.90;;;;;;4891245;29;20238;-81
2022/12/02 13:30:50;;;;;;;25.67;23.10;;;4.80;99.90;;;;;;4885363;29;20209;-80
2022/12/02 13:33:19;;;;;;;26.20;23.60;;;4.80;99.90;;;;;;4891744;29;20200;-82
2022/12/02 13:35:45;;;;;;;25.10;22.60;;;4.80;99.90;;;;;;4878930;29;20360;-82
2022/12/02 13:38:12;;;;;;;25.60;22.90;;;4.70;99.90;;;;;;4891938;29;20208;-83
2022/12/02 13:40:39;;;;;;;25.23;22.67;;;4.80;99.90;;;;;;4875541;29;20212;-77
2022/12/02 13:43:06;;;;;;;25.30;22.83;;;4.80;99.90;;;;;;4871717;29;20217;-83
2022/12/02 13:45:33;;;;;;;24.27;21.87;;;4.80;99.90;;;;;;4882717;29;20225;-81
2022/12/02 13:48:00;;;;;;;26.53;23.83;;;4.80;99.90;;;;;;4885890;29;20200;-83
2022/12/02 13:50:29;;;;;;;25.90;23.30;;;4.80;99.90;;;;;;4876502;29;20198;-83
2022/12/02 13:52:55;;;;;;;25.80;22.97;;;4.80;99.90;;;;;;4876799;29;20209;-82
2022/12/02 13:55:22;;;;;;;24.93;22.43;;;4.70;99.90;;;;;;4880652;29;20225;-83
2022/12/02 13:57:49;;;;;;;25.13;22.63;;;4.70;99.90;;;;;;4881113;29;20585;-85
2022/12/02 14:00:17;;;;;;;25.50;23.00;;;4.70;99.90;;;;;;4881348;29;20216;-85
2022/12/02 14:02:44;;;;;;;23.93;21.60;;;4.70;99.90;;;;;;4878153;29;20212;-81
2022/12/02 14:05:11;;;;;;;24.33;22.13;;;4.70;99.90;;;;;;4877797;29;20265;-82
2022/12/02 14:07:40;;;;;;;25.20;22.60;;;4.80;99.90;;;;;;4880404;29;20201;-82
2022/12/02 14:10:08;;;;;;;26.33;23.40;;;4.80;99.90;;;;;;4883938;29;20218;-77
2022/12/02 14:12:35;;;;;;;24.57;22.17;;;4.90;99.90;;;;;;4885572;29;20213;-81
2022/12/02 14:15:02;;;;;;;24.77;22.47;;;4.90;99.90;;;;;;4888563;29;20221;-79
2022/12/02 14:17:29;;;;;;;25.83;23.07;;;4.90;99.90;;;;;;4883176;29;20200;-80
2022/12/02 14:19:56;;;;;;;23.47;21.13;;;4.80;99.90;;;;;;4889312;29;20216;-82
2022/12/02 14:22:23;;;;;;;26.73;23.30;;;4.80;99.90;;;;;;4885196;29;20641;-82
2022/12/02 14:24:51;;;;;;;26.43;23.00;;;4.80;99.90;;;;;;4886964;29;20240;-82
2022/12/02 14:27:18;;;;;;;25.63;23.03;;;4.80;99.90;;;;;;4888851;29;20595;-81
2022/12/02 14:29:45;;;;;;;24.00;21.60;;;4.70;99.90;;;;;;4888334;29;20205;-80
2022/12/02 14:32:12;;;;;;;24.53;22.07;;;4.70;99.90;;;;;;4888541;29;20223;-82
2022/12/02 14:34:38;;;;;;;26.07;23.73;;;4.60;99.90;;;;;;4884542;29;20201;-81
2022/12/02 14:37:05;;;;;;;26.43;23.93;;;4.60;99.90;;;;;;4875353;29;20209;-80
2022/12/02 14:39:32;;;;;;;26.17;23.70;;;4.70;99.90;;;;;;4893899;29;20211;-80
2022/12/02 14:42:00;;;;;;;25.33;22.83;;;4.70;99.90;;;;;;4887089;29;20205;-81
2022/12/02 14:44:27;;;;;;;25.43;23.13;;;4.60;99.90;;;;;;4880461;29;20262;-80
2022/12/02 14:46:54;;;;;;;25.37;23.07;;;4.60;99.90;;;;;;4889623;29;20218;-79
2022/12/02 14:49:21;;;;;;;24.40;22.03;;;4.70;99.90;;;;;;4891104;29;20286;-79
2022/12/02 14:51:48;;;;;;;24.23;22.13;;;4.60;99.90;;;;;;4900366;29;20189;-80
2022/12/02 14:54:14;;;;;;;24.00;21.97;;;4.60;99.90;;;;;;4888764;29;20205;-81
2022/12/02 14:56:41;;;;;;;22.47;20.57;;;4.60;99.90;;;;;;4897698;29;20220;-81
2022/12/02 14:59:09;;;;;;;21.90;19.90;;;4.50;99.90;;;;;;4893525;29;20212;-80
2022/12/02 15:01:36;;;;;;;20.53;18.83;;;4.40;99.90;;;;;;4886914;29;20209;-80
2022/12/02 15:04:03;;;;;;;20.37;18.80;;;4.40;99.90;;;;;;4885241;29;20209;-79
2022/12/02 15:06:30;;;;;;;20.57;18.93;;;4.40;99.90;;;;;;4887425;29;20236;-79
2022/12/02 15:08:57;;;;;;;19.17;17.70;;;4.40;99.90;;;;;;4888675;29;20212;-81
2022/12/02 15:11:24;;;;;;;19.50;17.90;;;4.40;99.90;;;;;;4889407;29;20212;-82
2022/12/02 15:13:51;;;;;;;19.67;17.97;;;4.40;99.90;;;;;;4888152;29;20212;-81
2022/12/02 15:16:19;;;;;;;19.30;17.90;;;4.40;99.90;;;;;;4893790;29;20244;-82
2022/12/02 15:18:46;;;;;;;21.17;19.37;;;4.30;99.90;;;;;;4888403;29;20283;-81
2022/12/02 15:21:12;;;;;;;21.87;20.07;;;4.40;99.90;;;;;;4881442;29;20209;-81
2022/12/02 15:23:39;;;;;;;21.80;20.10;;;4.40;99.90;;;;;;4885053;29;20205;-82
2022/12/02 15:26:06;;;;;;;22.27;20.30;;;4.40;99.90;;;;;;4885064;29;20229;-81
2022/12/02 15:28:33;;;;;;;22.03;20.23;;;4.40;99.90;;;;;;4888893;29;20196;-82
2022/12/02 15:31:00;;;;;;;22.17;20.40;;;4.30;99.90;;;;;;4887863;29;20620;-82
2022/12/02 15:33:28;;;;;;;22.10;20.40;;;4.40;99.90;;;;;;4885558;29;20572;-82
2022/12/02 15:35:55;;;;;;;21.77;19.97;;;4.40;99.90;;;;;;4887438;29;20572;-82
2022/12/02 15:38:22;;;;;;;22.30;20.50;;;4.30;99.90;;;;;;4883980;29;20209;-81
2022/12/02 15:40:49;;;;;;;21.03;19.33;;;4.30;99.90;;;;;;4885499;29;20424;-83
2022/12/02 15:43:16;;;;;;;22.17;20.27;;;4.30;99.90;;;;;;4878853;29;20253;-80
2022/12/02 15:45:43;;;;;;;20.83;19.23;;;4.30;99.90;;;;;;4876862;29;20218;-81